• Join FlightAware (Why Join?)
  • Login
  • US Flag 
02:51AM EST


 

Airport Tracker/Info


-or-


 

Live Flight TrackerFlight Track Log ✈ SWA385 ✈ 15-Jul-2013 ✈ KMDW - KSMF

Flight Track Log - Related Links

Times and Time Zones

All times are in EDT time to prevent confusion due to time zone crossing. See the SWA385 flight status page for this flight to view local times or setup timezone preferences in your user account.

Time Position Orientation Groundspeed Altitude Reporting Facility
EDT Latitude Longitude Course Direction KTS MPH feet Rate Location/Type
07:14PM 41.8039 -87.8336 251° West 233 268 3,400  Level Chicago Center
07:15PM 41.7953 -87.9189 262° West 236 272 5,900 2,700 Climbing Chicago Center
07:16PM 41.7964 -88.0208 271° West 268 308 9,000 3,180 Climbing Chicago Center
07:17PM 41.7967 -88.1500 270° West 290 334 12,500 2,940 Climbing Chicago Center
07:18PM 41.8067 -88.2603 277° West 307 353 15,100 2,460 Climbing Chicago Center
07:19PM 41.8746 -88.6692 277° West  Level FlightAware Approximate
07:19PM 41.8503 -88.3656 299° West 325 374 17,600  Level Chicago Center
07:20PM 41.8967 -88.4739 300° West 335 386 19,200 1,320 Climbing Chicago Center
07:21PM 41.9489 -88.5983 299° West 377 434 20,400 1,560 Climbing Chicago Center
07:22PM 42.0153 -88.7564 300° West 406 467 22,500 1,920 Climbing Chicago Center
07:23PM 42.0758 -88.9025 299° West 427 491 24,400 1,740 Climbing Chicago Center
07:25PM 42.1167 -89.0578 290° West 437 503 26,200 1,620 Climbing Chicago Center
07:26PM 42.1439 -89.2194 283° West 448 516 27,800 1,440 Climbing Chicago Center
07:27PM 42.1531 -89.3883 274° West 449 517 29,200 1,200 Climbing Chicago Center
07:28PM 42.1636 -89.5619 275° West 461 531 30,400 1,380 Climbing Chicago Center
07:29PM 42.1750 -89.7411 275° West 474 545 32,100 1,560 Climbing Chicago Center
07:30PM 42.1864 -89.9261 275° West 467 537 33,700 900 Climbing Chicago Center
07:31PM 42.1958 -90.0981 274° West 464 534 34,000 120 Climbing Chicago Center
07:32PM 42.2058 -90.2700 275° West 466 536 34,000  Level Chicago Center
07:33PM 42.2189 -90.4767 275° West 464 534 34,000 480 Level Chicago Center
07:34PM 42.2275 -90.6492 274° West 465 535 35,100 960 Climbing Chicago Center
07:35PM 42.2300 -90.8192 271° West 459 528 36,000 420 Climbing Chicago Center
07:36PM 42.2350 -90.9911 272° West 460 529 36,000  Level Chicago Center
07:37PM 42.2383 -91.1625 272° West 460 529 36,000  Level Chicago Center
07:38PM 42.2439 -91.3658 272° West 455 524 36,000  Level Chicago Center
07:39PM 42.2475 -91.5361 272° West 455 524 36,000  Level Chicago Center
07:40PM 42.2506 -91.7056 271° West 454 522 36,000  Level Chicago Center
07:41PM 42.2536 -91.8747 271° West 452 520 36,000  Level Chicago Center
07:42PM 42.2567 -92.0414 271° West 449 517 36,000  Level Chicago Center
07:43PM 42.2597 -92.2103 271° West 451 519 36,000  Level Chicago Center
07:44PM 42.2625 -92.4103 271° West 448 516 36,000  Level Chicago Center
07:45PM 42.2644 -92.5778 271° West 449 517 36,000  Level Chicago Center
07:46PM 42.2661 -92.6786 271° West 448 516 36,000  Level Minneapolis Center
07:47PM 42.2681 -92.8450 271° West 447 514 36,000  Level Minneapolis Center
07:48PM 42.2708 -93.0458 271° West 451 519 36,000  Level Minneapolis Center
07:49PM 42.2706 -93.2133 270° West 452 520 36,000  Level Minneapolis Center
07:50PM 42.2722 -93.3814 271° West 452 520 36,000  Level Minneapolis Center
07:51PM 42.2736 -93.5506 271° West 454 522 36,000  Level Minneapolis Center
07:52PM 42.2731 -93.7200 270° West 456 525 36,000  Level Minneapolis Center
07:53PM 42.2733 -93.9231 270° West 456 525 36,000  Level Minneapolis Center
07:54PM 42.2731 -94.0908 270° West 453 521 36,000  Level Minneapolis Center
07:55PM 42.2731 -94.2533 270° West 446 513 36,000  Level Minneapolis Center
07:56PM 42.2747 -94.4236 271° West 451 519 36,000  Level Minneapolis Center
07:57PM 42.2717 -94.6239 269° West 447 514 36,000  Level Minneapolis Center
07:58PM 42.2711 -94.7925 270° West 447 514 36,000  Level Minneapolis Center
07:59PM 42.2692 -94.9622 269° West 453 521 36,000  Level Minneapolis Center
08:01PM 42.2678 -95.1322 269° West 454 522 36,000  Level Minneapolis Center
08:02PM 42.2653 -95.3708 269° West 457 526 36,000  Level Minneapolis Center
08:03PM 42.2628 -95.5392 269° West 452 520 36,000  Level Minneapolis Center
08:04PM 42.2608 -95.7053 269° West 445 512 36,000  Level Minneapolis Center
08:05PM 42.2575 -95.8725 269° West 448 516 36,000  Level Minneapolis Center
08:06PM 42.2556 -96.0425 269° West 454 522 36,000  Level Minneapolis Center
08:07PM 42.2517 -96.2419 269° West 448 516 36,000 120 Level Minneapolis Center
08:08PM 42.2486 -96.4094 269° West 448 516 36,300 720 Climbing Minneapolis Center
08:09PM 42.2447 -96.5800 268° West 451 519 37,500 720 Climbing Minneapolis Center
08:10PM 42.2406 -96.7492 268° West 453 521 38,000 180 Climbing Minneapolis Center
08:11PM 42.2353 -96.9503 268° West 451 519 38,000  Level Minneapolis Center
08:12PM 42.2294 -97.1203 267° West 452 520 38,000  Level Minneapolis Center
08:13PM 42.2244 -97.3247 268° West 453 521 38,000  Level Minneapolis Center
08:14PM 42.2197 -97.4914 268° West 452 520 38,000  Level Minneapolis Center
08:15PM 42.2150 -97.6617 268° West 454 522 38,000  Level Minneapolis Center
08:16PM 42.2083 -97.8333 267° West 454 522 38,000  Level Minneapolis Center
08:17PM 42.2028 -98.0022 268° West 452 520 38,000  Level Minneapolis Center
08:18PM 42.1964 -98.2047 268° West 453 521 38,000  Level Minneapolis Center
08:19PM 42.1892 -98.3728 267° West 451 519 38,000  Level Minneapolis Center
08:21PM 42.1822 -98.5411 267° West 452 520 38,000  Level Minneapolis Center
08:21PM 42.1772 -98.6769 267° West 454 522 38,000  Level Denver Center
08:22PM 42.1703 -98.8439 267° West 449 517 38,000  Level Denver Center
08:23PM 42.1631 -99.0133 267° West 453 521 38,000  Level Denver Center
08:25PM 42.1533 -99.2494 267° West 454 522 38,000  Level Minneapolis Center
08:26PM 42.1439 -99.4189 266° West 454 522 38,000  Level Denver Center
08:27PM 42.1353 -99.5906 266° West 461 531 38,000  Level Denver Center
08:28PM 42.1269 -99.7497 266° West 461 531 38,000  Level Denver Center
08:29PM 42.1181 -99.9428 267° West 463 533 38,000  Level Denver Center
08:30PM 42.1092 -100.1069 266° West 461 531 38,000  Level Denver Center
08:31PM 42.0989 -100.3003 266° West 463 533 38,000  Level Denver Center
08:32PM 42.0872 -100.5183 266° West 462 532 38,000  Level Denver Center
08:33PM 42.0772 -100.6814 265° West 459 528 38,000  Level Denver Center
08:34PM 42.0664 -100.8733 266° West 461 531 38,000  Level Denver Center
08:35PM 42.0569 -101.0375 266° West 461 531 38,000  Level Denver Center
08:36PM 42.0439 -101.2303 265° West 464 534 38,000  Level Denver Center
08:37PM 42.0333 -101.3942 265° West 462 532 38,000  Level Denver Center
08:38PM 42.0211 -101.5864 265° West 464 534 38,000  Level Denver Center
08:39PM 42.0097 -101.7508 265° West 464 534 38,000  Level Denver Center
08:40PM 41.9958 -101.9433 265° West 466 536 38,000  Level Denver Center
08:41PM 41.9847 -102.1078 265° West 464 534 38,000  Level Denver Center
08:42PM 41.9714 -102.2897 264° West 463 533 38,000  Level Denver Center
08:43PM 41.9589 -102.4533 264° West 461 531 38,000  Level Denver Center
08:44PM 41.9458 -102.6436 265° West 458 527 38,000  Level Denver Center
08:45PM 41.9325 -102.8058 264° West 457 526 38,000  Level Denver Center
08:46PM 41.9175 -102.9944 264° West 454 522 38,000  Level Denver Center
08:48PM 41.9056 -103.1556 264° West 453 521 38,000  Level Denver Center
08:49PM 41.8914 -103.3189 263° West 458 527 38,000  Level Denver Center
08:50PM 41.8753 -103.5081 264° West 457 526 38,000  Level Denver Center
08:51PM 41.8628 -103.6694 264° West 456 525 38,000  Level Denver Center
08:52PM 41.8458 -103.8586 263° West 457 526 38,000  Level Denver Center
08:53PM 41.8317 -104.0194 263° West 454 522 38,000  Level Denver Center
08:54PM 41.8158 -104.2047 264° West 448 516 38,000  Level Denver Center
08:55PM 41.8011 -104.3625 263° West 445 512 38,000  Level Denver Center
08:56PM 41.7842 -104.5464 263° West 444 511 38,000  Level Denver Center
08:57PM 41.7694 -104.7042 263° West 445 512 38,000  Level Denver Center
08:58PM 41.7556 -104.8622 263° West 446 513 38,000  Level Denver Center
08:59PM 41.7369 -105.0428 262° West 441 507 38,000  Level Denver Center
09:00PM 41.7228 -105.1989 263° West 440 506 38,000  Level Denver Center
09:01PM 41.7044 -105.3778 262° West 436 502 38,000  Level Denver Center
09:02PM 41.6889 -105.5322 262° West 437 503 38,000  Level Denver Center
09:03PM 41.6700 -105.7144 262° West 440 506 38,000  Level Denver Center
09:04PM 41.6544 -105.8672 262° West 435 501 38,000  Level Denver Center
09:05PM 41.6358 -106.0486 262° West 439 505 38,000  Level Denver Center
09:06PM 41.6186 -106.2047 262° West 443 510 38,000  Level Denver Center
09:07PM 41.6014 -106.3603 262° West 442 509 38,000  Level Denver Center
09:08PM 41.5842 -106.5272 262° West 442 509 38,000  Level Denver Center
09:09PM 41.5642 -106.7078 262° West 440 506 38,000  Level Denver Center
09:10PM 41.5458 -106.8597 261° West 435 501 38,000  Level Denver Center
09:11PM 41.5253 -107.0367 261° West 433 498 38,000  Level Denver Center
09:12PM 41.5075 -107.1889 261° West 432 497 38,000  Level Denver Center
09:13PM 41.4886 -107.3669 262° West 434 499 38,000  Level Denver Center
09:14PM 41.4697 -107.5167 260° West 430 495 38,000  Level Denver Center
09:15PM 41.4492 -107.6922 261° West 428 493 38,000  Level Denver Center
09:17PM 41.4103 -108.0144 261° West 425 489 38,000  Level Denver Center
09:18PM 41.3911 -108.1642 260° West 425 489 38,000  Level Salt Lake Center
09:19PM 41.3728 -108.3133 261° West 426 490 38,000  Level Salt Lake Center
09:21PM 41.3503 -108.4867 260° West 425 489 38,000  Level Salt Lake Center
09:22PM 41.3317 -108.6347 261° West 425 489 38,000  Level Salt Lake Center
09:23PM 41.3117 -108.7817 260° West 422 486 38,000  Level Salt Lake Center
09:24PM 41.2881 -108.9547 260° West 422 486 38,000  Level Salt Lake Center
09:25PM 41.2672 -109.1047 260° West 424 488 38,000  Level Salt Lake Center
09:26PM 41.2472 -109.2556 260° West 427 491 38,000  Level Salt Lake Center
09:27PM 41.2242 -109.4286 260° West 424 488 38,000  Level Salt Lake Center
09:28PM 41.2042 -109.5753 260° West 421 484 38,000  Level Salt Lake Center
09:29PM 41.1806 -109.7475 260° West 424 488 38,000  Level Salt Lake Center
09:30PM 41.1597 -109.8942 259° West 422 486 38,000  Level Salt Lake Center
09:31PM 41.1389 -110.0411 259° West 424 488 38,000  Level Salt Lake Center
09:32PM 41.1142 -110.2122 259° West 422 486 38,000  Level Salt Lake Center
09:33PM 41.0931 -110.3564 259° West 419 482 38,000  Level Salt Lake Center
09:34PM 41.0686 -110.5253 259° West 417 480 38,000  Level Salt Lake Center
09:35PM 41.0447 -110.6842 259° West 416 479 38,000  Level Salt Lake Center
09:36PM 41.0225 -110.8339 259° West 415 478 38,000  Level Salt Lake Center
09:37PM 41.0008 -110.9822 259° West 413 475 38,000  Level Salt Lake Center
09:38PM 40.9775 -111.1311 258° West 413 475 38,000  Level Salt Lake Center
09:39PM 40.9553 -111.2800 259° West 413 475 38,000  Level Salt Lake Center
09:40PM 40.9328 -111.4303 259° West 416 479 38,000  Level Salt Lake Center
09:41PM 40.9094 -111.5800 258° West 413 475 38,000  Level Salt Lake Center
09:42PM 40.8858 -111.7325 258° West 417 480 38,000  Level Salt Lake Center
09:43PM 40.8628 -111.8861 259° West 418 481 38,000  Level Salt Lake Center
09:44PM 40.8364 -112.0408 257° West 426 490 38,000  Level Salt Lake Center
09:45PM 40.8106 -112.1969 258° West 424 488 38,000  Level Salt Lake Center
09:46PM 40.7811 -112.3783 258° West 419 482 38,000  Level Salt Lake Center
09:47PM 40.7567 -112.5303 258° West 423 487 38,000  Level Salt Lake Center
09:48PM 40.7325 -112.6789 258° West 413 475 38,000  Level Salt Lake Center
09:49PM 40.7072 -112.8297 258° West 418 481 38,000  Level Salt Lake Center
09:50PM 40.6811 -112.9772 257° West 414 476 38,000  Level Salt Lake Center
09:51PM 40.6567 -113.1250 258° West 413 475 38,000  Level Salt Lake Center
09:52PM 40.6317 -113.2722 257° West 412 474 38,000  Level Salt Lake Center
09:53PM 40.5989 -113.4481 256° West 414 476 38,000  Level Salt Lake Center
09:54PM 40.5722 -113.5978 257° West 420 483 38,000  Level Salt Lake Center
09:55PM 40.5467 -113.7464 257° West 418 481 38,000  Level Salt Lake Center
09:56PM 40.5208 -113.8967 257° West 421 484 38,000  Level Salt Lake Center
09:57PM 40.4931 -114.0458 256° West 420 483 38,000  Level Salt Lake Center
09:59PM 40.4661 -114.1922 256° West 415 478 38,000  Level Salt Lake Center
10:00PM 40.4400 -114.3389 257° West 414 476 38,000  Level Salt Lake Center
10:01PM 40.4133 -114.4856 257° West 415 478 38,000  Level Salt Lake Center
10:02PM 40.3811 -114.6611 257° West 414 476 38,000  Level Salt Lake Center
10:03PM 40.3531 -114.8053 256° West 418 481 38,000  Level Salt Lake Center
10:04PM 40.3278 -114.9458 257° West 415 478 38,000  Level Salt Lake Center
10:05PM 40.2967 -115.1081 256° West 412 474 38,000  Level Salt Lake Center
10:06PM 40.2700 -115.2481 256° West 414 476 38,000  Level Salt Lake Center
10:07PM 40.2386 -115.4100 256° West 411 473 38,000  Level Salt Lake Center
10:08PM 40.2131 -115.5478 256° West 409 471 38,000  Level Salt Lake Center
10:09PM 40.1850 -115.6869 255° West 411 473 38,000  Level Salt Lake Center
10:10PM 40.1531 -115.8467 255° West 408 470 38,000  Level Salt Lake Center
10:11PM 40.1267 -115.9844 256° West 407 468 38,000  Level Salt Lake Center
10:12PM 40.0925 -116.1444 254° West 407 468 38,000  Level Salt Lake Center
10:13PM 40.0631 -116.2850 255° West 414 476 38,000  Level Salt Lake Center
10:14PM 40.0344 -116.4239 255° West 413 475 38,000  Level Salt Lake Center
10:15PM 40.0019 -116.5867 255° West 413 475 38,000  Level Salt Lake Center
10:15PM 39.9889 -116.6550 256° West 409 471 38,000  Level Oakland Center
10:17PM 39.9556 -116.8167 255° West 411 473 38,000  Level Oakland Center
10:18PM 39.9258 -116.9561 255° West 414 476 38,000  Level Oakland Center
10:19PM 39.8972 -117.0956 255° West 415 478 38,000  Level Oakland Center
10:19PM 39.8819 -117.1656 254° West 414 476 38,000  Level Salt Lake Center
10:20PM 39.8633 -117.2575 255° West 415 478 38,000  Level Oakland Center
10:21PM 39.8331 -117.3961 254° West 414 476 38,000  Level Oakland Center
10:22PM 39.8042 -117.5356 255° West 415 478 38,000  Level Oakland Center
10:23PM 39.7689 -117.6967 254° West 414 476 38,000  Level Oakland Center
10:24PM 39.7403 -117.8253 254° West 414 476 38,000  Level Oakland Center
10:25PM 39.7094 -117.9697 255° West 416 479 38,000  Level Oakland Center
10:26PM 39.6719 -118.1417 254° West 414 476 38,000  Level Oakland Center
10:27PM 39.6408 -118.2842 254° West 413 475 38,000  Level Oakland Center
10:28PM 39.6097 -118.4256 254° West 411 473 38,000  Level Oakland Center
10:29PM 39.5783 -118.5675 254° West 412 474 38,000  Level Oakland Center
10:30PM 39.5469 -118.7097 254° West 418 481 38,000 -60 Level Oakland Center
10:31PM 39.5144 -118.8514 253° West 420 483 37,900 -600 Descending Oakland Center
10:32PM 39.4811 -118.9936 253° West 421 484 36,900 -1,140 Descending Oakland Center
10:33PM 39.4411 -119.1664 253° West 421 484 35,700 -1,620 Descending Oakland Center
10:34PM 39.4075 -119.3086 253° West 415 478 33,700 -1,860 Descending Oakland Center
10:35PM 39.3758 -119.4458 253° West 402 463 32,000 -1,080 Descending Oakland Center
10:36PM 39.3469 -119.5819 255° West 396 456 31,500 -1,380 Descending Oakland Center
10:37PM 39.3136 -119.7183 253° West 399 459 29,300 -2,100 Descending Oakland Center
10:38PM 39.2814 -119.8519 253° West 391 450 27,300 -1,980 Descending Oakland Center
10:39PM 39.2497 -119.9806 252° West 380 437 25,300 -1,920 Descending Oakland Center
10:40PM 39.2214 -120.1061 254° West 367 422 23,500 -2,280 Descending Oakland Center
10:41PM 39.1864 -120.2392 251° West 361 415 20,700 -2,400 Descending Oakland Center
10:42PM 39.1569 -120.3636 253° West 363 418 18,700 -2,100 Descending Oakland Center
10:43PM 39.1236 -120.4850 251° West 361 415 16,500 -1,680 Descending Oakland Center
10:44PM 39.0925 -120.6158 253° West 372 428 15,300 -1,380 Descending Oakland Center
10:45PM 39.0656 -120.7422 255° West 372 428 13,800 -1,860 Descending Oakland Center
10:46PM 39.0342 -120.8558 250° West 357 411 11,600 -1,800 Descending Oakland Center
10:47PM 39.0036 -120.9686 251° West 346 398 10,200 -1,380 Descending Oakland Center
10:48PM 38.9719 -121.0903 252° West 317 365 8,900 -1,440 Descending Oakland Center
10:49PM 38.9667 -121.1500 264° West 301 346 8,100 -1,500 Descending Northern Cal TRACON
10:50PM 38.9667 -121.2500 270° West 296 341 6,700 -1,080 Descending Northern Cal TRACON
10:51PM 38.9667 -121.3500 270° West 265 305 6,000 -660 Descending Northern Cal TRACON
10:52PM 38.9667 -121.4333 270° West 235 270 5,400 -840 Descending Northern Cal TRACON
10:53PM 38.9667 -121.5167 270° West 230 265 4,400 -1,080 Descending Northern Cal TRACON
10:54PM 38.9333 -121.5833 237° Southwest 227 261 3,300 -900 Descending Northern Cal TRACON
10:55PM 38.8833 -121.5833 180° South 209 241 2,800 -660 Descending Northern Cal TRACON
10:56PM 38.8333 -121.6000 195° South 183 211 2,000 -600 Descending Northern Cal TRACON
10:57PM 38.7833 -121.6000 180° South 157 181 1,600 -660 Descending Northern Cal TRACON
10:58PM 38.7500 -121.6000 180° South 154 177 800 -600 Descending Northern Cal TRACON
10:59PM 38.6814 -121.6011 181° South 151 174 100 -420 Descending Oakland Center